createdAt,value
2022-12-29T00:02:20.266Z,100.00
2022-12-29T00:04:48.291Z,99.82
2022-12-29T00:07:16.252Z,94.80
2022-12-29T00:09:46.000Z,95.12
2022-12-29T00:12:13.915Z,93.85
2022-12-29T00:15:00.690Z,95.36
2022-12-29T00:17:28.644Z,95.54
2022-12-29T00:20:13.955Z,97.62
2022-12-29T00:22:59.312Z,98.35
2022-12-29T00:25:44.751Z,99.92
2022-12-29T00:28:30.134Z,98.53
2022-12-29T00:31:20.186Z,97.81
2022-12-29T00:34:05.892Z,99.99
2022-12-29T00:36:36.824Z,99.81
2022-12-29T00:39:26.484Z,100.00
2022-12-29T00:42:11.911Z,100.00
2022-12-29T00:44:39.874Z,100.00
2022-12-29T00:47:09.224Z,100.00
2022-12-29T00:49:36.183Z,100.00
2022-12-29T00:52:05.928Z,100.00
2022-12-29T00:54:35.293Z,100.00
2022-12-29T00:57:04.443Z,100.00
2022-12-29T00:59:32.354Z,99.08
2022-12-29T01:02:00.572Z,99.78
2022-12-29T01:04:30.145Z,100.00
2022-12-29T01:06:58.079Z,100.00
2022-12-29T01:09:43.526Z,100.00
2022-12-29T01:12:14.390Z,99.79
2022-12-29T01:14:42.348Z,98.46
2022-12-29T01:17:10.297Z,97.54
2022-12-29T01:19:39.722Z,97.50
2022-12-29T01:22:07.728Z,96.98
2022-12-29T01:24:35.645Z,98.06
2022-12-29T01:27:03.597Z,98.92
2022-12-29T01:29:31.557Z,98.84
2022-12-29T01:31:59.551Z,97.77
2022-12-29T01:34:27.575Z,96.41
2022-12-29T01:36:56.890Z,96.58
2022-12-29T01:39:24.821Z,97.66
2022-12-29T01:41:52.816Z,96.93
2022-12-29T01:44:50.785Z,97.13
2022-12-29T01:47:25.539Z,96.87
2022-12-29T01:49:56.898Z,98.17
2022-12-29T01:52:28.910Z,98.28
2022-12-29T01:54:58.209Z,97.32
2022-12-29T01:57:30.057Z,96.32
2022-12-29T02:00:04.353Z,95.86
2022-12-29T02:02:33.766Z,94.72
2022-12-29T02:05:09.376Z,94.20
2022-12-29T02:07:40.148Z,94.12
2022-12-29T02:10:08.996Z,93.87
2022-12-29T02:12:37.028Z,93.76
2022-12-29T02:15:06.515Z,94.15
2022-12-29T02:17:53.518Z,93.82
2022-12-29T02:21:02.116Z,93.08
2022-12-29T02:24:00.141Z,92.79
2022-12-29T02:26:50.968Z,92.64
2022-12-29T02:30:01.608Z,92.48
2022-12-29T02:32:38.269Z,92.26
2022-12-29T02:35:14.267Z,92.50
2022-12-29T02:37:48.621Z,93.69
2022-12-29T02:40:25.763Z,94.98
2022-12-29T02:43:00.828Z,94.97
2022-12-29T02:45:34.019Z,96.51
2022-12-29T02:48:11.826Z,97.98
2022-12-29T02:50:42.003Z,99.33
2022-12-29T02:53:13.181Z,97.49
2022-12-29T02:55:49.515Z,96.25
2022-12-29T02:58:20.188Z,97.07
2022-12-29T03:01:03.845Z,95.35
2022-12-29T03:03:46.422Z,95.95
2022-12-29T03:06:29.407Z,95.48
2022-12-29T03:09:03.260Z,94.12
2022-12-29T03:11:57.346Z,93.18
2022-12-29T03:14:50.773Z,93.09
2022-12-29T03:17:30.207Z,92.88
2022-12-29T03:20:03.773Z,95.67
2022-12-29T03:22:37.029Z,95.33
2022-12-29T03:25:11.347Z,94.81
2022-12-29T03:27:40.084Z,93.39
2022-12-29T03:30:10.118Z,93.71
2022-12-29T03:32:44.146Z,93.25
2022-12-29T03:35:17.130Z,93.86
2022-12-29T03:37:52.923Z,93.24
2022-12-29T03:40:23.586Z,94.20
2022-12-29T03:42:52.343Z,94.53
2022-12-29T03:45:21.606Z,93.79
2022-12-29T03:47:49.876Z,94.00
2022-12-29T03:50:19.318Z,93.94
2022-12-29T03:52:47.351Z,93.23
2022-12-29T03:55:15.380Z,93.17
2022-12-29T03:57:43.312Z,92.80
2022-12-29T04:00:12.783Z,92.63
2022-12-29T04:02:40.919Z,93.32
2022-12-29T04:05:09.374Z,92.49
2022-12-29T04:07:38.706Z,92.62
2022-12-29T04:10:07.350Z,93.98
2022-12-29T04:12:35.739Z,95.38
2022-12-29T04:15:03.663Z,95.94
2022-12-29T04:17:31.655Z,96.05
2022-12-29T04:20:19.582Z,95.22
2022-12-29T04:22:48.887Z,95.39
2022-12-29T04:25:17.153Z,95.21
2022-12-29T04:27:46.504Z,96.70
2022-12-29T04:30:14.703Z,97.08
2022-12-29T04:32:42.807Z,97.15
2022-12-29T04:35:10.839Z,97.49
2022-12-29T04:37:38.770Z,97.88
2022-12-29T04:40:09.808Z,97.47
2022-12-29T04:42:37.792Z,97.14
2022-12-29T04:45:06.342Z,96.04
2022-12-29T04:47:34.305Z,94.11
2022-12-29T04:50:02.601Z,93.56
2022-12-29T04:52:30.537Z,94.26
2022-12-29T04:54:58.548Z,93.46
2022-12-29T04:57:28.090Z,92.77
2022-12-29T04:59:55.998Z,91.99
2022-12-29T05:02:24.117Z,93.14
2022-12-29T05:04:52.265Z,93.15
2022-12-29T05:07:21.031Z,93.71
2022-12-29T05:09:49.010Z,93.69
2022-12-29T05:12:16.927Z,92.81
2022-12-29T05:14:47.317Z,92.88
2022-12-29T05:17:15.322Z,92.73
2022-12-29T05:19:43.303Z,96.01
2022-12-29T05:22:11.234Z,95.99
2022-12-29T05:24:39.150Z,95.46
2022-12-29T05:27:07.067Z,94.35
2022-12-29T05:29:35.621Z,92.65
2022-12-29T05:32:05.263Z,92.72
2022-12-29T05:34:33.273Z,94.61
2022-12-29T05:37:02.082Z,94.56
2022-12-29T05:39:30.013Z,94.83
2022-12-29T05:41:57.939Z,96.28
2022-12-29T05:44:25.999Z,96.07
2022-12-29T05:46:53.930Z,94.96
2022-12-29T05:49:23.278Z,93.29
2022-12-29T05:51:51.214Z,93.34
2022-12-29T05:54:19.155Z,93.81
2022-12-29T05:56:47.070Z,93.77
2022-12-29T05:59:15.045Z,93.72
2022-12-29T06:01:43.211Z,93.05
2022-12-29T06:04:11.222Z,93.08
2022-12-29T06:06:41.594Z,93.72
2022-12-29T06:09:12.362Z,94.55
2022-12-29T06:11:40.258Z,95.50
2022-12-29T06:14:08.195Z,96.00
2022-12-29T06:16:36.257Z,96.14
2022-12-29T06:19:04.278Z,96.33
2022-12-29T06:21:32.195Z,95.38
2022-12-29T06:24:01.519Z,95.58
2022-12-29T06:26:29.479Z,95.99
2022-12-29T06:28:57.419Z,94.69
2022-12-29T06:31:25.393Z,94.91
2022-12-29T06:33:53.378Z,94.72
2022-12-29T06:36:21.366Z,94.72
2022-12-29T06:38:49.302Z,97.00
2022-12-29T06:41:18.628Z,98.23
2022-12-29T06:43:46.538Z,98.90
2022-12-29T06:46:14.547Z,98.65
2022-12-29T06:48:43.316Z,98.89
2022-12-29T06:51:11.323Z,100.00
2022-12-29T06:53:39.268Z,100.00
2022-12-29T06:56:07.696Z,100.00
2022-12-29T06:58:36.988Z,100.00
2022-12-29T07:01:05.199Z,100.00
2022-12-29T07:03:33.152Z,100.00
2022-12-29T07:06:01.103Z,100.00
2022-12-29T07:08:29.050Z,100.00
2022-12-29T07:10:56.981Z,100.00
2022-12-29T07:13:25.001Z,100.00
2022-12-29T07:15:54.301Z,100.00
2022-12-29T07:18:22.231Z,100.00
2022-12-29T07:20:50.174Z,100.00
2022-12-29T07:23:18.127Z,100.00
2022-12-29T07:25:46.047Z,100.00
2022-12-29T07:28:14.081Z,100.00
2022-12-29T07:30:42.071Z,100.00
2022-12-29T07:33:11.373Z,100.00
2022-12-29T07:35:39.317Z,100.00
2022-12-29T07:38:07.243Z,100.00
2022-12-29T07:40:35.153Z,100.00
2022-12-29T07:43:03.143Z,100.00
2022-12-29T07:45:31.043Z,100.00
2022-12-29T07:47:59.020Z,100.00
2022-12-29T07:50:28.309Z,100.00
2022-12-29T07:52:56.411Z,100.00
2022-12-29T07:55:24.364Z,100.00
2022-12-29T07:57:54.847Z,100.00
2022-12-29T08:00:23.060Z,100.00
2022-12-29T08:02:51.934Z,100.00
2022-12-29T08:05:19.846Z,100.00
2022-12-29T08:07:49.290Z,100.00
2022-12-29T08:10:18.083Z,100.00
2022-12-29T08:12:46.213Z,100.00
2022-12-29T08:15:14.237Z,100.00
2022-12-29T08:17:42.430Z,98.99
2022-12-29T08:20:11.415Z,99.56
2022-12-29T08:22:39.379Z,98.62
2022-12-29T08:25:09.560Z,98.80
2022-12-29T08:27:37.799Z,97.14
2022-12-29T08:30:06.612Z,97.23
2022-12-29T08:32:34.751Z,98.16
2022-12-29T08:35:02.734Z,97.48
2022-12-29T08:37:31.436Z,97.40
2022-12-29T08:40:01.165Z,97.41
2022-12-29T08:42:32.175Z,97.74
2022-12-29T08:45:00.530Z,97.46
2022-12-29T08:47:29.052Z,97.03
2022-12-29T08:49:57.004Z,96.84
2022-12-29T08:52:25.092Z,95.76
2022-12-29T08:54:53.069Z,96.05
2022-12-29T08:57:21.002Z,95.82
2022-12-29T08:59:50.318Z,96.23
2022-12-29T09:02:24.154Z,94.95
2022-12-29T09:04:53.426Z,94.93
2022-12-29T09:07:21.503Z,94.81
2022-12-29T09:09:49.461Z,94.02
2022-12-29T09:12:17.906Z,92.39
2022-12-29T09:14:45.864Z,90.67
2022-12-29T09:17:32.753Z,88.46
2022-12-29T09:20:00.810Z,87.73
2022-12-29T09:22:28.799Z,88.18
2022-12-29T09:24:56.734Z,87.19
2022-12-29T09:27:24.648Z,86.75
2022-12-29T09:29:52.581Z,84.70
2022-12-29T09:32:23.566Z,85.08
2022-12-29T09:34:52.323Z,86.63
2022-12-29T09:37:20.306Z,84.06
2022-12-29T09:39:54.026Z,84.22
2022-12-29T09:42:25.891Z,83.84
2022-12-29T09:45:13.356Z,84.26
2022-12-29T09:47:44.237Z,85.42
2022-12-29T09:50:21.421Z,82.89
2022-12-29T09:52:53.322Z,83.90
2022-12-29T09:55:25.545Z,82.39
2022-12-29T09:57:58.805Z,81.49
2022-12-29T10:00:38.299Z,80.63
2022-12-29T10:03:16.381Z,78.26
2022-12-29T10:05:50.429Z,77.64
2022-12-29T10:08:34.632Z,81.68
2022-12-29T10:11:15.664Z,80.56
2022-12-29T10:14:01.951Z,81.17
2022-12-29T10:16:41.193Z,80.65
2022-12-29T10:19:33.522Z,79.35
2022-12-29T10:22:11.707Z,79.41
2022-12-29T10:24:41.172Z,74.43
2022-12-29T10:27:13.610Z,75.11
2022-12-29T10:29:47.551Z,76.12
2022-12-29T10:32:25.303Z,74.90
2022-12-29T10:34:59.382Z,74.96
2022-12-29T10:37:37.049Z,77.35
2022-12-29T10:40:16.821Z,75.67
2022-12-29T10:42:50.711Z,76.20
2022-12-29T10:45:20.751Z,76.10
2022-12-29T10:47:56.326Z,75.40
2022-12-29T10:50:26.805Z,76.20
2022-12-29T10:52:56.716Z,75.85
2022-12-29T10:55:29.468Z,78.59
2022-12-29T10:58:00.933Z,77.54
2022-12-29T11:00:28.857Z,76.56
2022-12-29T11:03:31.557Z,75.73
2022-12-29T11:06:09.348Z,74.76
2022-12-29T11:08:42.044Z,73.89
2022-12-29T11:11:11.536Z,75.88
2022-12-29T11:13:50.213Z,75.14
2022-12-29T11:16:31.706Z,75.93
2022-12-29T11:19:00.270Z,74.78
2022-12-29T11:21:35.012Z,74.72
2022-12-29T11:24:04.042Z,74.84
2022-12-29T11:26:34.755Z,74.41
2022-12-29T11:29:29.397Z,75.02
2022-12-29T11:32:00.107Z,76.34
2022-12-29T11:34:33.813Z,76.42
2022-12-29T11:37:07.358Z,75.55
2022-12-29T11:39:41.504Z,75.17
2022-12-29T11:42:17.131Z,76.56
2022-12-29T11:44:48.740Z,76.27
2022-12-29T11:47:28.722Z,76.83
2022-12-29T11:50:00.202Z,75.59
2022-12-29T11:52:34.259Z,77.41
2022-12-29T11:55:03.681Z,77.92
2022-12-29T11:57:35.713Z,76.43
2022-12-29T12:00:05.912Z,76.17
2022-12-29T12:02:44.723Z,76.82
2022-12-29T12:05:20.472Z,76.95
2022-12-29T12:07:54.473Z,75.52
2022-12-29T12:10:26.936Z,76.85
2022-12-29T12:13:05.478Z,77.23
2022-12-29T12:15:45.866Z,76.43
2022-12-29T12:18:20.915Z,78.25
2022-12-29T12:20:54.038Z,75.56
2022-12-29T12:23:38.703Z,75.45
2022-12-29T12:26:13.796Z,75.07
2022-12-29T12:28:50.803Z,76.29
2022-12-29T12:31:26.767Z,75.28
2022-12-29T12:34:00.721Z,74.34
2022-12-29T12:36:46.404Z,74.67
2022-12-29T12:39:25.728Z,75.21
2022-12-29T12:42:07.195Z,75.39
2022-12-29T12:44:44.168Z,75.25
2022-12-29T12:47:38.970Z,76.80
2022-12-29T12:50:29.564Z,75.67
2022-12-29T12:53:13.145Z,76.09
2022-12-29T12:56:03.751Z,76.20
2022-12-29T12:58:42.922Z,76.98
2022-12-29T13:01:23.090Z,75.90
2022-12-29T13:04:16.337Z,75.48
2022-12-29T13:06:54.643Z,76.56
2022-12-29T13:09:46.686Z,76.33
2022-12-29T13:12:29.167Z,76.14
2022-12-29T13:15:09.919Z,76.31
2022-12-29T13:17:46.329Z,76.83
2022-12-29T13:20:29.852Z,78.42
2022-12-29T13:23:03.819Z,78.02
2022-12-29T13:25:39.820Z,76.31
2022-12-29T13:28:19.131Z,77.84
2022-12-29T13:30:55.839Z,78.31
2022-12-29T13:33:31.273Z,76.76
2022-12-29T13:36:04.537Z,78.97
2022-12-29T13:38:37.622Z,77.45
2022-12-29T13:41:10.722Z,77.46
2022-12-29T13:43:42.913Z,77.91
2022-12-29T13:46:17.844Z,78.31
2022-12-29T13:48:50.320Z,78.61
2022-12-29T13:51:25.652Z,79.83
2022-12-29T13:54:05.051Z,79.96
2022-12-29T13:56:40.180Z,80.45
2022-12-29T13:59:20.232Z,81.89
2022-12-29T14:01:56.176Z,80.78
2022-12-29T14:04:26.683Z,80.13
2022-12-29T14:07:03.930Z,80.49
2022-12-29T14:09:47.409Z,81.61
2022-12-29T14:12:24.338Z,82.12
2022-12-29T14:14:54.169Z,82.72
2022-12-29T14:17:23.266Z,82.65
2022-12-29T14:19:56.129Z,83.69
2022-12-29T14:22:32.993Z,84.39
2022-12-29T14:25:01.729Z,84.53
2022-12-29T14:27:55.686Z,84.48
2022-12-29T14:30:51.226Z,84.62
2022-12-29T14:33:19.507Z,84.63
2022-12-29T14:35:50.834Z,84.70
2022-12-29T14:38:21.760Z,84.40
2022-12-29T14:40:51.087Z,84.89
2022-12-29T14:43:29.301Z,84.60
2022-12-29T14:46:02.983Z,84.45
2022-12-29T14:48:48.673Z,85.06
2022-12-29T14:51:32.818Z,84.63
2022-12-29T14:54:00.837Z,83.17
2022-12-29T14:56:32.305Z,83.21
2022-12-29T14:59:04.005Z,83.47
2022-12-29T15:01:42.747Z,83.31
2022-12-29T15:04:20.382Z,82.35
2022-12-29T15:06:50.622Z,82.97
2022-12-29T15:09:30.730Z,83.82
2022-12-29T15:12:03.783Z,84.30
2022-12-29T15:14:38.469Z,85.59
2022-12-29T15:17:25.634Z,84.81
2022-12-29T15:19:53.707Z,85.32
2022-12-29T15:22:21.890Z,85.20
2022-12-29T15:24:53.003Z,85.60
2022-12-29T15:27:23.711Z,85.49
2022-12-29T15:29:59.048Z,85.63
2022-12-29T15:32:31.208Z,85.60
2022-12-29T15:35:02.385Z,85.46
2022-12-29T15:37:36.426Z,86.81
2022-12-29T15:40:05.387Z,87.33
2022-12-29T15:42:59.006Z,87.23
2022-12-29T15:45:36.579Z,87.73
2022-12-29T15:48:09.472Z,87.38
2022-12-29T15:50:39.894Z,87.56
2022-12-29T15:53:13.251Z,87.42
2022-12-29T15:55:43.630Z,86.96
2022-12-29T15:58:22.199Z,87.80
2022-12-29T16:00:54.058Z,88.39
2022-12-29T16:03:26.559Z,89.03
2022-12-29T16:05:56.888Z,87.77
2022-12-29T16:08:38.103Z,87.43
2022-12-29T16:11:20.445Z,88.58
2022-12-29T16:13:50.799Z,87.90
2022-12-29T16:16:21.652Z,87.56
2022-12-29T16:18:57.209Z,87.97
2022-12-29T16:21:28.602Z,90.23
2022-12-29T16:24:01.908Z,94.79
2022-12-29T16:26:30.027Z,92.26
2022-12-29T16:29:00.572Z,91.34
2022-12-29T16:31:36.273Z,90.89
2022-12-29T16:34:22.222Z,91.00
2022-12-29T16:36:56.797Z,90.80
2022-12-29T16:39:37.011Z,88.88
2022-12-29T16:42:38.328Z,91.10
2022-12-29T16:45:46.657Z,93.33
2022-12-29T16:48:22.068Z,94.05
2022-12-29T16:50:51.966Z,92.72
2022-12-29T16:53:24.181Z,90.87
2022-12-29T16:55:53.986Z,90.35
2022-12-29T16:58:24.951Z,90.48
2022-12-29T17:00:56.868Z,89.56
2022-12-29T17:03:30.017Z,89.16
2022-12-29T17:05:59.343Z,89.12
2022-12-29T17:08:27.816Z,89.37
2022-12-29T17:11:15.440Z,89.84
2022-12-29T17:13:43.607Z,90.72
2022-12-29T17:16:12.936Z,91.31
2022-12-29T17:18:41.170Z,91.88
2022-12-29T17:21:10.509Z,91.65
2022-12-29T17:23:38.470Z,92.48
2022-12-29T17:26:09.432Z,93.26
2022-12-29T17:28:37.343Z,92.49
2022-12-29T17:31:08.092Z,95.08
2022-12-29T17:33:38.566Z,95.88
2022-12-29T17:36:06.843Z,97.59
2022-12-29T17:38:37.726Z,100.00
2022-12-29T17:41:06.343Z,100.00
2022-12-29T17:43:36.967Z,99.63
2022-12-29T17:46:08.361Z,98.09
2022-12-29T17:48:36.672Z,97.31
2022-12-29T17:51:04.928Z,96.25
2022-12-29T17:53:32.944Z,96.92
2022-12-29T17:56:02.248Z,96.47
2022-12-29T17:58:32.563Z,95.07
2022-12-29T18:01:02.182Z,94.25
2022-12-29T18:03:33.188Z,93.19
2022-12-29T18:06:01.638Z,92.37
2022-12-29T18:08:30.490Z,92.37
2022-12-29T18:10:59.001Z,92.45
2022-12-29T18:13:43.664Z,93.08
2022-12-29T18:16:14.439Z,92.24
2022-12-29T18:18:42.509Z,93.88
2022-12-29T18:21:16.595Z,93.36
2022-12-29T18:23:44.842Z,92.83
2022-12-29T18:26:23.900Z,93.28
2022-12-29T18:28:56.808Z,92.72
2022-12-29T18:31:27.075Z,93.50
2022-12-29T18:33:56.019Z,92.72
2022-12-29T18:36:24.230Z,92.93
2022-12-29T18:38:54.060Z,92.46
2022-12-29T18:41:24.025Z,92.98
2022-12-29T18:43:52.061Z,92.76
2022-12-29T18:46:23.519Z,93.46
2022-12-29T18:48:52.147Z,93.44
2022-12-29T18:51:21.855Z,93.85
2022-12-29T18:53:50.130Z,94.70
2022-12-29T18:56:18.056Z,95.16
2022-12-29T18:58:45.991Z,95.62
2022-12-29T19:01:22.174Z,96.24
2022-12-29T19:03:50.303Z,95.33
2022-12-29T19:06:18.442Z,95.74
2022-12-29T19:08:46.387Z,95.52
2022-12-29T19:11:14.287Z,94.12
2022-12-29T19:13:42.275Z,94.14
2022-12-29T19:16:18.400Z,94.44
2022-12-29T19:19:03.789Z,93.19
2022-12-29T19:21:36.586Z,93.67
2022-12-29T19:24:04.866Z,94.43
2022-12-29T19:26:36.759Z,94.42
2022-12-29T19:29:06.555Z,93.49
2022-12-29T19:31:35.033Z,93.69
2022-12-29T19:34:04.474Z,94.85
2022-12-29T19:36:32.761Z,95.26
2022-12-29T19:39:00.955Z,95.61
2022-12-29T19:41:29.068Z,95.56
2022-12-29T19:43:57.381Z,94.91
2022-12-29T19:46:25.836Z,94.38
2022-12-29T19:48:54.977Z,94.79
2022-12-29T19:51:24.299Z,95.28
2022-12-29T19:53:52.801Z,95.92
2022-12-29T19:56:20.759Z,96.07
2022-12-29T19:58:48.692Z,96.64
2022-12-29T20:01:18.572Z,95.09
2022-12-29T20:03:47.018Z,95.47
2022-12-29T20:06:15.424Z,94.92
2022-12-29T20:08:45.066Z,95.28
2022-12-29T20:11:15.365Z,94.49
2022-12-29T20:13:43.842Z,94.53
2022-12-29T20:16:15.196Z,93.83
2022-12-29T20:18:43.859Z,94.07
2022-12-29T20:21:14.932Z,94.49
2022-12-29T20:23:45.248Z,95.03
2022-12-29T20:26:16.097Z,94.97
2022-12-29T20:28:44.078Z,95.19
2022-12-29T20:31:18.458Z,94.95
2022-12-29T20:33:46.803Z,96.03
2022-12-29T20:36:17.789Z,95.67
2022-12-29T20:38:48.080Z,96.11
2022-12-29T20:41:16.555Z,95.49
2022-12-29T20:43:44.544Z,95.24
2022-12-29T20:46:18.050Z,94.95
2022-12-29T20:48:48.966Z,92.36
2022-12-29T20:51:16.997Z,92.89
2022-12-29T20:53:46.512Z,92.81
2022-12-29T20:56:16.629Z,93.54
2022-12-29T20:59:17.196Z,95.82
2022-12-29T21:01:33.096Z,96.38
2022-12-29T21:04:01.100Z,97.43
2022-12-29T21:06:29.055Z,96.92
2022-12-29T21:09:00.073Z,96.45
2022-12-29T21:11:28.881Z,95.23
2022-12-29T21:14:00.902Z,96.56
2022-12-29T21:16:29.698Z,97.46
2022-12-29T21:18:57.907Z,97.51
2022-12-29T21:21:26.991Z,95.89
2022-12-29T21:23:55.086Z,94.96
2022-12-29T21:26:25.600Z,94.44
2022-12-29T21:28:53.673Z,95.52
2022-12-29T21:31:29.966Z,97.08
2022-12-29T21:33:58.532Z,97.47
2022-12-29T21:36:26.544Z,96.22
2022-12-29T21:38:54.982Z,95.65
2022-12-29T21:41:24.350Z,95.48
2022-12-29T21:44:06.729Z,95.55
2022-12-29T21:46:36.209Z,95.01
2022-12-29T21:49:04.572Z,94.66
2022-12-29T21:51:49.834Z,94.88
2022-12-29T21:54:32.225Z,95.51
2022-12-29T21:57:01.593Z,96.02
2022-12-29T21:59:47.025Z,96.04
2022-12-29T22:02:37.213Z,93.87
2022-12-29T22:05:24.094Z,94.10
2022-12-29T22:08:09.485Z,93.34
2022-12-29T22:10:58.809Z,93.64
2022-12-29T22:13:28.615Z,95.56
2022-12-29T22:15:56.629Z,96.20
2022-12-29T22:18:24.572Z,96.00
2022-12-29T22:20:52.532Z,96.96
2022-12-29T22:23:20.547Z,97.20
2022-12-29T22:25:49.975Z,94.61
2022-12-29T22:28:18.262Z,95.46
2022-12-29T22:30:47.630Z,95.73
2022-12-29T22:33:15.608Z,98.01
2022-12-29T22:35:43.701Z,98.09
2022-12-29T22:38:11.668Z,97.95
2022-12-29T22:40:39.684Z,97.92
2022-12-29T22:43:12.949Z,98.97
2022-12-29T22:45:41.447Z,98.65
2022-12-29T22:48:11.664Z,98.23
2022-12-29T22:50:40.474Z,97.35
2022-12-29T22:53:08.405Z,94.37
2022-12-29T22:55:36.346Z,93.74
2022-12-29T22:58:04.442Z,93.97
2022-12-29T23:00:32.552Z,94.15
2022-12-29T23:03:00.657Z,95.57
2022-12-29T23:05:30.129Z,100.00
2022-12-29T23:07:58.081Z,100.00
2022-12-29T23:10:26.016Z,100.00
2022-12-29T23:12:53.925Z,100.00
2022-12-29T23:15:21.873Z,100.00
2022-12-29T23:17:49.843Z,100.00
2022-12-29T23:20:17.849Z,100.00
2022-12-29T23:22:47.180Z,100.00
2022-12-29T23:25:15.242Z,100.00
2022-12-29T23:27:43.159Z,100.00
2022-12-29T23:30:11.666Z,100.00
2022-12-29T23:32:39.601Z,100.00
2022-12-29T23:35:08.014Z,100.00
2022-12-29T23:37:35.945Z,100.00
2022-12-29T23:40:07.161Z,100.00
2022-12-29T23:42:35.089Z,100.00
2022-12-29T23:45:03.020Z,100.00
2022-12-29T23:47:30.955Z,100.00
2022-12-29T23:49:58.901Z,100.00
2022-12-29T23:52:26.949Z,100.00
2022-12-29T23:54:54.854Z,100.00
2022-12-29T23:57:24.154Z,100.00
2022-12-29T23:59:52.086Z,100.00
